createdAt,value
2022-09-06T00:01:51.293Z,17.83
2022-09-06T00:04:18.236Z,20.00
2022-09-06T00:06:45.065Z,20.50
2022-09-06T00:09:12.166Z,17.95
2022-09-06T00:11:39.045Z,13.18
2022-09-06T00:14:05.827Z,19.95
2022-09-06T00:16:32.750Z,21.42
2022-09-06T00:18:59.597Z,24.27
2022-09-06T00:21:29.458Z,20.48
2022-09-06T00:23:56.747Z,17.30
2022-09-06T00:26:24.116Z,23.88
2022-09-06T00:28:50.910Z,21.70
2022-09-06T00:31:20.398Z,17.02
2022-09-06T00:33:47.325Z,23.50
2022-09-06T00:36:14.284Z,21.52
2022-09-06T00:38:41.278Z,18.13
2022-09-06T00:41:08.848Z,23.75
2022-09-06T00:43:35.862Z,21.83
2022-09-06T00:46:03.623Z,19.23
2022-09-06T00:48:30.808Z,22.92
2022-09-06T00:51:00.960Z,25.10
2022-09-06T00:53:28.281Z,27.40
2022-09-06T00:55:55.521Z,29.33
2022-09-06T00:58:23.061Z,19.77
2022-09-06T01:00:50.066Z,24.48
2022-09-06T01:03:17.008Z,19.75
2022-09-06T01:05:43.850Z,24.95
2022-09-06T01:08:30.905Z,30.25
2022-09-06T01:11:17.934Z,22.58
2022-09-06T01:13:44.782Z,20.40
2022-09-06T01:16:30.374Z,22.50
2022-09-06T01:19:00.346Z,20.23
2022-09-06T01:21:27.153Z,22.38
2022-09-06T01:23:54.036Z,18.08
2022-09-06T01:26:36.261Z,19.08
2022-09-06T01:29:08.404Z,26.00
2022-09-06T01:31:52.660Z,16.60
2022-09-06T01:34:29.631Z,20.02
2022-09-06T01:39:37.863Z,11.00
2022-09-06T01:42:12.932Z,13.45
2022-09-06T01:44:42.243Z,14.43
2022-09-06T01:47:11.778Z,16.13
2022-09-06T01:49:49.148Z,13.15
2022-09-06T01:52:20.722Z,16.40
2022-09-06T01:55:03.053Z,20.48
2022-09-06T01:57:33.222Z,17.40
2022-09-06T02:00:04.009Z,19.77
2022-09-06T02:02:45.050Z,24.58
2022-09-06T02:05:18.095Z,21.27
2022-09-06T02:07:45.464Z,16.02
2022-09-06T02:10:16.210Z,15.57
2022-09-06T02:12:45.726Z,21.08
2022-09-06T02:15:32.662Z,14.15
2022-09-06T02:18:28.899Z,12.85
2022-09-06T02:20:57.153Z,16.15
2022-09-06T02:23:26.410Z,17.30
2022-09-06T02:25:54.942Z,19.73
2022-09-06T02:28:22.933Z,19.75
2022-09-06T02:30:51.081Z,23.02
2022-09-06T02:33:20.154Z,20.75
2022-09-06T02:35:49.025Z,23.38
2022-09-06T02:38:16.857Z,27.02
2022-09-06T02:40:44.732Z,15.40
2022-09-06T02:43:11.577Z,19.33
2022-09-06T02:45:38.400Z,24.65
2022-09-06T02:48:05.407Z,25.95
2022-09-06T02:50:32.185Z,21.45
2022-09-06T02:53:09.667Z,19.85
2022-09-06T02:55:37.031Z,20.42
2022-09-06T02:58:05.601Z,21.20
2022-09-06T03:00:32.910Z,23.63
2022-09-06T03:03:00.169Z,24.88
2022-09-06T03:05:27.867Z,24.48
2022-09-06T03:07:55.031Z,21.35
2022-09-06T03:10:22.505Z,23.23
2022-09-06T03:12:49.402Z,20.85
2022-09-06T03:15:16.381Z,22.27
2022-09-06T03:17:43.570Z,20.38
2022-09-06T03:20:11.301Z,16.77
2022-09-06T03:22:39.393Z,18.63
2022-09-06T03:25:06.835Z,16.50
2022-09-06T03:27:33.691Z,12.90
2022-09-06T03:30:01.005Z,13.80
2022-09-06T03:32:27.779Z,10.57
2022-09-06T03:34:54.723Z,19.83
2022-09-06T03:37:21.541Z,15.20
2022-09-06T03:39:48.494Z,13.52
2022-09-06T03:42:15.393Z,16.98
2022-09-06T03:44:42.265Z,11.63
2022-09-06T03:47:09.139Z,13.27
2022-09-06T03:49:36.040Z,21.38
2022-09-06T03:52:02.948Z,12.30
2022-09-06T03:54:29.780Z,18.50
2022-09-06T03:56:57.481Z,19.88
2022-09-06T03:59:24.452Z,16.55
2022-09-06T04:01:51.266Z,14.65
2022-09-06T04:04:18.143Z,18.63
2022-09-06T04:06:45.078Z,18.30
2022-09-06T04:09:11.991Z,20.70
2022-09-06T04:11:38.799Z,15.07
2022-09-06T04:14:05.615Z,17.27
2022-09-06T04:16:32.550Z,20.75
2022-09-06T04:19:00.947Z,17.80
2022-09-06T04:21:27.997Z,20.90
2022-09-06T04:23:55.094Z,16.05
2022-09-06T04:26:22.123Z,16.88
2022-09-06T04:28:48.972Z,17.33
2022-09-06T04:31:15.789Z,14.68
2022-09-06T04:33:42.692Z,17.65
2022-09-06T04:36:10.201Z,16.38
2022-09-06T04:38:41.240Z,21.95
2022-09-06T04:41:08.882Z,19.23
2022-09-06T04:43:35.844Z,14.00
2022-09-06T04:46:04.105Z,15.25
2022-09-06T04:48:31.065Z,21.25
2022-09-06T04:50:57.898Z,19.45
2022-09-06T04:53:25.283Z,19.67
2022-09-06T04:55:52.162Z,17.20
2022-09-06T04:58:20.777Z,19.98
2022-09-06T05:00:48.218Z,21.15
2022-09-06T05:03:15.423Z,15.80
2022-09-06T05:05:42.245Z,20.48
2022-09-06T05:08:09.155Z,16.08
2022-09-06T05:10:35.907Z,19.60
2022-09-06T05:13:02.730Z,15.93
2022-09-06T05:15:29.552Z,16.17
2022-09-06T05:18:04.165Z,21.55
2022-09-06T05:20:32.459Z,21.42
2022-09-06T05:22:59.318Z,30.20
2022-09-06T05:25:26.194Z,25.05
2022-09-06T05:27:53.082Z,20.95
2022-09-06T05:30:20.204Z,21.63
2022-09-06T05:32:47.309Z,40.90
2022-09-06T05:35:14.187Z,28.10
2022-09-06T05:37:41.076Z,44.60
2022-09-06T05:40:08.441Z,49.72
2022-09-06T05:42:35.412Z,50.25
2022-09-06T05:45:02.485Z,24.45
2022-09-06T05:47:31.297Z,27.25
2022-09-06T05:49:58.106Z,27.23
2022-09-06T05:52:24.981Z,26.83
2022-09-06T05:54:55.597Z,26.25
2022-09-06T05:57:22.627Z,35.70
2022-09-06T05:59:49.441Z,32.95
2022-09-06T06:02:16.333Z,27.35
2022-09-06T06:04:43.141Z,38.25
2022-09-06T06:07:10.039Z,31.65
2022-09-06T06:09:37.032Z,41.97
2022-09-06T06:12:03.935Z,25.45
2022-09-06T06:14:30.807Z,31.80
2022-09-06T06:16:57.681Z,36.00
2022-09-06T06:19:24.623Z,35.50
2022-09-06T06:21:51.442Z,33.78
2022-09-06T06:24:18.329Z,34.55
2022-09-06T06:26:45.149Z,38.22
2022-09-06T06:29:12.008Z,32.80
2022-09-06T06:31:39.367Z,24.30
2022-09-06T06:34:06.708Z,30.73
2022-09-06T06:36:34.929Z,34.47
2022-09-06T06:39:03.145Z,27.63
2022-09-06T06:41:31.938Z,31.60
2022-09-06T06:44:00.246Z,40.70
2022-09-06T06:46:28.524Z,34.08
2022-09-06T06:48:55.592Z,30.08
2022-09-06T06:51:23.835Z,36.88
2022-09-06T06:53:50.745Z,29.10
2022-09-06T06:56:18.480Z,30.80
2022-09-06T06:58:45.768Z,32.40
2022-09-06T07:01:12.820Z,28.17
2022-09-06T07:03:39.822Z,43.30
2022-09-06T07:08:38.290Z,38.65
2022-09-06T07:11:10.102Z,31.63
2022-09-06T07:13:37.492Z,32.22
2022-09-06T07:16:10.268Z,38.40
2022-09-06T07:18:42.086Z,28.50
2022-09-06T07:24:11.872Z,30.63
2022-09-06T07:26:39.817Z,27.35
2022-09-06T07:29:07.823Z,36.42
2022-09-06T07:36:51.954Z,28.60
2022-09-06T07:39:18.771Z,28.23
2022-09-06T07:41:45.691Z,25.15
2022-09-06T07:44:12.465Z,25.10
2022-09-06T07:46:39.692Z,27.27
2022-09-06T07:49:06.670Z,32.17
2022-09-06T07:51:33.769Z,33.80
2022-09-06T07:59:14.918Z,19.92
2022-09-06T08:01:42.081Z,20.92
2022-09-06T08:04:13.329Z,21.05
2022-09-06T08:09:28.309Z,29.15
2022-09-06T08:11:55.095Z,18.77
2022-09-06T08:14:22.058Z,18.95
2022-09-06T08:16:48.871Z,32.20
2022-09-06T08:19:15.746Z,27.30
2022-09-06T08:21:42.599Z,22.42
2022-09-06T08:24:12.857Z,18.73
2022-09-06T08:26:40.819Z,17.27
2022-09-06T08:29:08.991Z,19.42
2022-09-06T08:31:37.315Z,17.35
2022-09-06T08:34:04.216Z,18.67
2022-09-06T08:36:31.607Z,17.73
2022-09-06T08:38:59.335Z,16.95
2022-09-06T08:41:31.953Z,22.98
2022-09-06T08:46:56.946Z,17.67
2022-09-06T08:49:29.539Z,10.65
2022-09-06T08:52:14.554Z,14.38
2022-09-06T08:54:47.010Z,15.15
2022-09-06T08:57:16.979Z,21.92
2022-09-06T08:59:44.217Z,20.30
2022-09-06T09:02:18.620Z,16.25
2022-09-06T09:04:51.691Z,12.18
2022-09-06T09:07:31.772Z,29.17
2022-09-06T09:09:59.616Z,18.52
2022-09-06T09:12:27.518Z,9.63
2022-09-06T09:14:58.147Z,32.03
2022-09-06T09:17:27.835Z,13.07
2022-09-06T09:19:55.439Z,17.30
2022-09-06T09:22:23.283Z,18.42
2022-09-06T09:24:51.968Z,23.65
2022-09-06T09:27:21.486Z,22.05
2022-09-06T09:33:29.604Z,12.98
2022-09-06T09:35:58.220Z,13.00
2022-09-06T09:38:27.395Z,8.02
2022-09-06T09:40:57.479Z,10.10
2022-09-06T09:43:25.384Z,14.10
2022-09-06T09:46:27.820Z,15.02
2022-09-06T09:49:06.485Z,11.77
2022-09-06T09:51:39.138Z,17.10
2022-09-06T09:54:07.423Z,12.48
2022-09-06T09:56:37.127Z,23.30
2022-09-06T09:59:07.352Z,22.67
2022-09-06T10:01:34.282Z,14.77
2022-09-06T10:09:37.586Z,12.93
2022-09-06T10:12:05.031Z,7.60
2022-09-06T10:14:40.846Z,12.35
2022-09-06T10:17:07.562Z,12.40
2022-09-06T10:19:38.103Z,11.02
2022-09-06T10:22:20.244Z,7.63
2022-09-06T10:25:05.926Z,10.60
2022-09-06T10:27:33.385Z,9.90
2022-09-06T10:30:04.992Z,8.35
2022-09-06T10:32:42.140Z,8.23
2022-09-06T10:35:09.529Z,13.98
2022-09-06T10:37:39.297Z,8.40
2022-09-06T10:40:10.318Z,14.57
2022-09-06T10:42:48.352Z,16.73
2022-09-06T10:45:44.341Z,11.63
2022-09-06T10:48:30.292Z,20.83
2022-09-06T10:51:00.336Z,20.13
2022-09-06T10:53:42.998Z,16.92
2022-09-06T10:56:29.175Z,21.30
2022-09-06T11:01:55.633Z,11.85
2022-09-06T11:07:36.318Z,14.48
2022-09-06T11:10:07.936Z,15.50
2022-09-06T11:12:54.282Z,18.38
2022-09-06T11:15:22.865Z,10.95
2022-09-06T11:17:56.909Z,13.98
2022-09-06T11:20:24.442Z,13.02
2022-09-06T11:22:53.333Z,16.70
2022-09-06T11:25:32.141Z,20.75
2022-09-06T11:28:00.103Z,14.68
2022-09-06T11:30:27.559Z,10.05
2022-09-06T11:33:10.517Z,18.80
2022-09-06T11:35:37.737Z,13.27
2022-09-06T11:38:04.497Z,11.82
2022-09-06T11:40:38.628Z,11.02
2022-09-06T11:43:05.351Z,13.20
2022-09-06T11:45:46.165Z,9.95
2022-09-06T11:48:26.434Z,19.73
2022-09-06T11:50:59.302Z,20.05
2022-09-06T11:53:27.645Z,36.45
2022-09-06T11:56:00.483Z,38.45
2022-09-06T11:58:30.169Z,25.45
2022-09-06T12:01:12.481Z,44.15
2022-09-06T12:04:04.858Z,23.58
2022-09-06T12:06:39.047Z,14.05
2022-09-06T12:09:24.772Z,36.25
2022-09-06T12:11:53.512Z,27.83
2022-09-06T12:14:30.467Z,20.45
2022-09-06T12:17:07.111Z,31.00
2022-09-06T12:19:45.784Z,33.65
2022-09-06T12:22:27.775Z,26.52
2022-09-06T12:24:54.511Z,20.50
2022-09-06T12:27:23.090Z,5.80
2022-09-06T12:30:10.007Z,28.83
2022-09-06T12:32:40.131Z,4.95
2022-09-06T12:38:01.671Z,38.85
2022-09-06T12:40:37.587Z,24.13
2022-09-06T12:43:05.012Z,26.38
2022-09-06T12:45:31.893Z,25.85
2022-09-06T12:48:07.525Z,26.50
2022-09-06T12:50:34.798Z,14.18
2022-09-06T12:53:02.511Z,22.58
2022-09-06T12:55:32.900Z,22.10
2022-09-06T12:58:04.634Z,16.17
2022-09-06T13:00:35.192Z,24.52
2022-09-06T13:03:15.971Z,23.33
2022-09-06T13:05:45.303Z,14.65
2022-09-06T13:08:20.091Z,24.42
2022-09-06T13:10:48.854Z,11.77
2022-09-06T13:13:19.739Z,22.60
2022-09-06T13:15:47.096Z,14.65
2022-09-06T13:18:33.552Z,17.75
2022-09-06T13:21:07.939Z,9.65
2022-09-06T13:23:45.226Z,24.85
2022-09-06T13:26:11.977Z,14.02
2022-09-06T13:28:38.754Z,17.48
2022-09-06T13:31:08.146Z,9.82
2022-09-06T13:33:35.676Z,15.95
2022-09-06T13:36:05.109Z,13.55
2022-09-06T13:38:35.419Z,13.80
2022-09-06T13:41:12.766Z,14.95
2022-09-06T13:43:45.342Z,9.40
2022-09-06T13:46:12.267Z,11.90
2022-09-06T13:48:44.704Z,10.40
2022-09-06T13:51:11.833Z,9.88
2022-09-06T13:53:38.627Z,17.17
2022-09-06T13:56:08.874Z,12.02
2022-09-06T13:58:36.271Z,15.07
2022-09-06T14:01:04.260Z,14.70
2022-09-06T14:03:32.205Z,14.85
2022-09-06T14:06:00.416Z,16.08
2022-09-06T14:08:38.805Z,14.23
2022-09-06T14:11:14.983Z,20.15
2022-09-06T14:13:42.093Z,12.18
2022-09-06T14:16:08.939Z,10.27
2022-09-06T14:18:36.590Z,10.60
2022-09-06T14:21:03.501Z,23.42
2022-09-06T14:23:30.831Z,18.55
2022-09-06T14:25:58.690Z,17.23
2022-09-06T14:28:25.916Z,23.35
2022-09-06T14:30:53.528Z,7.57
2022-09-06T14:33:21.409Z,17.08
2022-09-06T14:35:48.446Z,17.63
2022-09-06T14:38:16.318Z,17.80
2022-09-06T14:40:46.055Z,20.13
2022-09-06T14:43:13.242Z,16.15
2022-09-06T14:45:40.098Z,8.20
2022-09-06T14:48:07.346Z,25.52
2022-09-06T14:50:34.569Z,20.73
2022-09-06T14:53:02.118Z,21.10
2022-09-06T14:55:30.482Z,18.50
2022-09-06T14:57:59.040Z,16.10
2022-09-06T15:00:25.899Z,15.18
2022-09-06T15:02:52.862Z,10.93
2022-09-06T15:05:19.732Z,27.65
2022-09-06T15:07:46.798Z,17.73
2022-09-06T15:10:14.024Z,28.52
2022-09-06T15:12:40.812Z,15.50
2022-09-06T15:15:07.801Z,14.05
2022-09-06T15:17:35.306Z,14.05
2022-09-06T15:20:02.324Z,26.73
2022-09-06T15:22:29.232Z,20.48
2022-09-06T15:24:56.319Z,13.05
2022-09-06T15:27:23.407Z,19.02
2022-09-06T15:29:50.914Z,11.05
2022-09-06T15:32:17.755Z,9.13
2022-09-06T15:34:44.632Z,10.20
2022-09-06T15:37:11.536Z,9.15
2022-09-06T15:39:38.408Z,15.10
2022-09-06T15:42:05.397Z,16.50
2022-09-06T15:44:32.562Z,8.05
2022-09-06T15:46:59.454Z,10.10
2022-09-06T15:49:28.712Z,9.43
2022-09-06T15:51:56.651Z,6.28
2022-09-06T15:54:43.423Z,12.07
2022-09-06T15:57:10.314Z,8.85
2022-09-06T15:59:37.443Z,12.32
2022-09-06T16:02:04.650Z,8.93
2022-09-06T16:04:31.987Z,8.23
2022-09-06T16:06:58.818Z,8.55
2022-09-06T16:09:26.039Z,13.32
2022-09-06T16:11:53.116Z,18.75
2022-09-06T16:14:20.382Z,11.75
2022-09-06T16:16:47.582Z,9.18
2022-09-06T16:19:15.501Z,11.32
2022-09-06T16:21:43.012Z,13.00
2022-09-06T16:24:11.298Z,11.88
2022-09-06T16:26:40.364Z,12.35
2022-09-06T16:29:08.087Z,12.98
2022-09-06T16:31:39.717Z,6.25
2022-09-06T16:34:07.935Z,7.70
2022-09-06T16:36:34.779Z,8.90
2022-09-06T16:39:01.735Z,6.60
2022-09-06T16:41:42.696Z,9.50
2022-09-06T16:44:10.680Z,8.75
2022-09-06T16:46:40.249Z,10.10
2022-09-06T16:49:07.101Z,7.00
2022-09-06T16:51:34.002Z,8.15
2022-09-06T16:54:01.113Z,10.05
2022-09-06T16:56:28.953Z,8.85
2022-09-06T16:58:59.971Z,10.75
2022-09-06T17:01:28.374Z,6.50
2022-09-06T17:03:55.636Z,8.80
2022-09-06T17:06:23.143Z,8.07
2022-09-06T17:08:50.307Z,12.18
2022-09-06T17:11:18.774Z,11.90
2022-09-06T17:13:46.406Z,6.97
2022-09-06T17:16:32.178Z,11.55
2022-09-06T17:19:00.235Z,8.13
2022-09-06T17:21:27.147Z,14.00
2022-09-06T17:23:54.227Z,7.72
2022-09-06T17:26:22.228Z,13.02
2022-09-06T17:28:49.848Z,9.43
2022-09-06T17:31:19.027Z,8.63
2022-09-06T17:33:51.002Z,10.18
2022-09-06T17:36:19.290Z,11.55
2022-09-06T17:38:52.734Z,7.65
2022-09-06T17:41:24.413Z,5.65
2022-09-06T17:43:53.849Z,9.68
2022-09-06T17:46:24.207Z,12.57
2022-09-06T17:48:53.697Z,19.88
2022-09-06T17:51:20.557Z,12.90
2022-09-06T17:53:47.710Z,14.27
2022-09-06T17:56:16.338Z,11.65
2022-09-06T17:58:43.978Z,14.15
2022-09-06T18:01:12.520Z,10.02
2022-09-06T18:03:40.390Z,16.85
2022-09-06T18:06:09.213Z,17.77
2022-09-06T18:08:36.573Z,15.50
2022-09-06T18:11:07.317Z,17.40
2022-09-06T18:13:34.297Z,13.80
2022-09-06T18:16:03.607Z,6.60
2022-09-06T18:18:31.452Z,11.73
2022-09-06T18:20:58.432Z,9.13
2022-09-06T18:23:25.350Z,17.25
2022-09-06T18:25:59.763Z,10.90
2022-09-06T18:28:28.768Z,8.43
2022-09-06T18:31:00.012Z,13.13
2022-09-06T18:33:27.493Z,9.77
2022-09-06T18:35:54.412Z,11.00
2022-09-06T18:38:22.599Z,11.32
2022-09-06T18:40:56.852Z,14.60
2022-09-06T18:43:27.282Z,18.17
2022-09-06T18:46:00.287Z,10.60
2022-09-06T18:48:29.254Z,10.55
2022-09-06T18:50:59.953Z,11.10
2022-09-06T18:53:26.875Z,13.65
2022-09-06T18:55:53.952Z,13.27
2022-09-06T18:58:20.976Z,12.68
2022-09-06T19:00:48.051Z,12.30
2022-09-06T19:03:14.924Z,18.60
2022-09-06T19:05:41.874Z,16.83
2022-09-06T19:08:08.823Z,17.30
2022-09-06T19:10:35.800Z,23.67
2022-09-06T19:13:02.678Z,19.65
2022-09-06T19:15:29.659Z,15.38
2022-09-06T19:17:57.186Z,19.65
2022-09-06T19:20:24.195Z,16.77
2022-09-06T19:22:51.348Z,18.98
2022-09-06T19:25:19.232Z,30.38
2022-09-06T19:27:48.840Z,16.98
2022-09-06T19:30:16.030Z,19.58
2022-09-06T19:32:42.861Z,16.38
2022-09-06T19:35:10.104Z,21.98
2022-09-06T19:37:37.316Z,23.55
2022-09-06T19:40:04.492Z,16.50
2022-09-06T19:42:31.409Z,17.50
2022-09-06T19:44:58.297Z,25.27
2022-09-06T19:47:25.150Z,23.02
2022-09-06T19:49:52.038Z,20.17
2022-09-06T19:52:18.988Z,25.27
2022-09-06T19:54:45.870Z,23.40
2022-09-06T19:57:12.946Z,20.80
2022-09-06T19:59:40.304Z,21.00
2022-09-06T20:02:07.185Z,24.63
2022-09-06T20:04:34.360Z,21.45
2022-09-06T20:07:01.265Z,19.08
2022-09-06T20:09:28.236Z,23.52
2022-09-06T20:11:55.095Z,19.17
2022-09-06T20:14:22.004Z,25.80
2022-09-06T20:16:48.996Z,24.92
2022-09-06T20:19:15.979Z,26.83
2022-09-06T20:21:43.253Z,20.98
2022-09-06T20:24:10.234Z,20.63
2022-09-06T20:26:38.251Z,28.50
2022-09-06T20:29:06.784Z,25.77
2022-09-06T20:31:34.301Z,33.42
2022-09-06T20:34:02.798Z,31.48
2022-09-06T20:36:30.301Z,36.40
2022-09-06T20:38:57.389Z,30.50
2022-09-06T20:41:25.156Z,35.15
2022-09-06T20:43:54.126Z,34.90
2022-09-06T20:46:22.165Z,32.53
2022-09-06T20:48:49.689Z,26.95
2022-09-06T20:51:19.235Z,27.77
2022-09-06T20:53:48.064Z,20.00
2022-09-06T20:56:19.603Z,25.30
2022-09-06T20:58:54.022Z,27.98
2022-09-06T21:01:23.356Z,27.25
2022-09-06T21:03:51.633Z,26.77
2022-09-06T21:06:19.182Z,41.50
2022-09-06T21:08:48.243Z,24.17
2022-09-06T21:11:15.664Z,31.58
2022-09-06T21:13:42.472Z,26.10
2022-09-06T21:16:10.259Z,20.42
2022-09-06T21:18:37.466Z,29.35
2022-09-06T21:21:08.219Z,30.30
2022-09-06T21:23:37.007Z,30.05
2022-09-06T21:26:05.956Z,24.33
2022-09-06T21:28:34.231Z,32.97
2022-09-06T21:31:02.520Z,26.95
2022-09-06T21:33:33.288Z,31.98
2022-09-06T21:36:11.160Z,41.28
2022-09-06T21:38:42.409Z,43.72
2022-09-06T21:41:10.354Z,37.03
2022-09-06T21:43:37.527Z,29.15
2022-09-06T21:46:05.978Z,26.05
2022-09-06T21:48:36.951Z,23.80
2022-09-06T21:51:04.063Z,28.85
2022-09-06T21:53:31.236Z,18.20
2022-09-06T21:56:02.018Z,28.58
2022-09-06T21:58:29.157Z,26.88
2022-09-06T22:00:58.956Z,27.85
2022-09-06T22:03:27.067Z,36.50
2022-09-06T22:05:53.951Z,29.98
2022-09-06T22:08:21.638Z,31.13
2022-09-06T22:10:51.280Z,21.23
2022-09-06T22:13:19.579Z,26.65
2022-09-06T22:15:46.630Z,31.23
2022-09-06T22:18:13.842Z,28.73
2022-09-06T22:20:40.653Z,26.63
2022-09-06T22:23:08.747Z,30.13
2022-09-06T22:25:35.732Z,21.23
2022-09-06T22:28:02.867Z,25.58
2022-09-06T22:30:30.553Z,23.23
2022-09-06T22:32:57.893Z,28.27
2022-09-06T22:35:24.712Z,20.70
2022-09-06T22:37:52.104Z,20.75
2022-09-06T22:40:19.597Z,28.30
2022-09-06T22:42:46.733Z,16.90
2022-09-06T22:45:13.587Z,30.40
2022-09-06T22:47:41.103Z,23.95
2022-09-06T22:50:08.484Z,29.15
2022-09-06T22:52:35.548Z,25.05
2022-09-06T22:55:02.666Z,24.88
2022-09-06T22:57:29.680Z,18.85
2022-09-06T22:59:56.540Z,17.92
2022-09-06T23:02:24.012Z,14.45
2022-09-06T23:04:51.514Z,19.80
2022-09-06T23:07:18.734Z,17.85
2022-09-06T23:09:45.876Z,22.17
2022-09-06T23:12:13.010Z,25.40
2022-09-06T23:14:39.817Z,26.08
2022-09-06T23:17:07.551Z,19.55
2022-09-06T23:19:34.347Z,20.00
2022-09-06T23:22:02.065Z,23.48
2022-09-06T23:24:29.098Z,20.20
2022-09-06T23:26:57.111Z,24.42
2022-09-06T23:29:23.923Z,12.27
2022-09-06T23:31:51.437Z,16.55
2022-09-06T23:34:18.276Z,21.55
2022-09-06T23:36:45.489Z,20.17
2022-09-06T23:39:12.723Z,19.73
2022-09-06T23:41:40.242Z,23.63
2022-09-06T23:44:07.250Z,19.80
2022-09-06T23:46:34.760Z,19.20
2022-09-06T23:49:01.563Z,17.30
2022-09-06T23:51:29.242Z,19.33
2022-09-06T23:53:56.324Z,14.93
2022-09-06T23:56:23.386Z,17.40
2022-09-06T23:58:50.215Z,10.65
